createdAt,value
2022-10-08T00:00:52.547Z,95.80
2022-10-08T00:03:20.719Z,95.90
2022-10-08T00:06:00.551Z,95.70
2022-10-08T00:08:29.219Z,95.60
2022-10-08T00:10:58.736Z,95.60
2022-10-08T00:13:27.050Z,95.70
2022-10-08T00:15:54.229Z,95.80
2022-10-08T00:18:21.438Z,95.70
2022-10-08T00:20:48.480Z,95.70
2022-10-08T00:23:16.840Z,95.80
2022-10-08T00:25:44.492Z,95.80
2022-10-08T00:28:13.610Z,95.80
2022-10-08T00:30:41.445Z,96.20
2022-10-08T00:33:08.769Z,95.80
2022-10-08T00:35:40.001Z,96.30
2022-10-08T00:38:07.575Z,96.00
2022-10-08T00:40:44.675Z,95.90
2022-10-08T00:43:16.138Z,96.20
2022-10-08T00:45:47.816Z,96.00
2022-10-08T00:48:25.618Z,96.00
2022-10-08T00:50:52.418Z,96.10
2022-10-08T00:53:19.092Z,96.10
2022-10-08T00:55:45.730Z,96.10
2022-10-08T00:58:22.412Z,96.30
2022-10-08T01:00:50.590Z,96.60
2022-10-08T01:03:17.669Z,96.40
2022-10-08T01:06:10.484Z,96.40
2022-10-08T01:08:53.985Z,96.40
2022-10-08T01:11:36.528Z,96.40
2022-10-08T01:14:23.385Z,96.70
2022-10-08T01:17:02.979Z,96.80
2022-10-08T01:19:35.414Z,96.70
2022-10-08T01:22:30.598Z,96.80
2022-10-08T01:25:32.735Z,96.80
2022-10-08T01:28:22.519Z,97.00
2022-10-08T01:30:56.179Z,97.00
2022-10-08T01:33:33.610Z,97.10
2022-10-08T01:36:04.161Z,96.90
2022-10-08T01:38:33.912Z,97.10
2022-10-08T01:41:05.219Z,97.10
2022-10-08T01:43:35.224Z,97.20
2022-10-08T01:46:09.882Z,97.20
2022-10-08T01:48:38.795Z,97.20
2022-10-08T01:51:13.802Z,97.30
2022-10-08T01:53:45.844Z,97.50
2022-10-08T01:56:18.341Z,97.40
2022-10-08T01:59:07.124Z,97.40
2022-10-08T02:01:51.462Z,97.50
2022-10-08T02:04:34.991Z,97.40
2022-10-08T02:07:23.067Z,97.50
2022-10-08T02:10:14.827Z,97.50
2022-10-08T02:12:42.774Z,97.50
2022-10-08T02:15:14.086Z,97.70
2022-10-08T02:17:52.460Z,97.50
2022-10-08T02:20:34.126Z,97.50
2022-10-08T02:23:17.841Z,97.60
2022-10-08T02:25:50.447Z,97.70
2022-10-08T02:28:20.170Z,97.70
2022-10-08T02:30:57.867Z,97.70
2022-10-08T02:33:31.687Z,97.80
2022-10-08T02:36:00.414Z,97.80
2022-10-08T02:38:33.782Z,98.00
2022-10-08T02:41:03.557Z,98.20
2022-10-08T02:43:33.533Z,98.30
2022-10-08T02:46:06.585Z,98.30
2022-10-08T02:48:36.528Z,98.50
2022-10-08T02:51:11.678Z,98.50
2022-10-08T02:53:40.330Z,98.50
2022-10-08T02:56:17.645Z,98.70
2022-10-08T02:58:46.203Z,98.60
2022-10-08T03:01:26.627Z,98.70
2022-10-08T03:04:21.604Z,98.80
2022-10-08T03:06:49.950Z,98.90
2022-10-08T03:09:19.001Z,99.00
2022-10-08T03:11:46.542Z,99.10
2022-10-08T03:14:16.227Z,99.10
2022-10-08T03:16:45.414Z,99.20
2022-10-08T03:19:14.567Z,99.20
2022-10-08T03:21:43.785Z,99.20
2022-10-08T03:24:12.859Z,99.30
2022-10-08T03:26:40.329Z,99.50
2022-10-08T03:29:10.906Z,99.50
2022-10-08T03:31:37.706Z,99.50
2022-10-08T03:34:04.478Z,99.50
2022-10-08T03:36:31.651Z,99.50
2022-10-08T03:38:58.321Z,99.50
2022-10-08T03:41:25.512Z,99.50
2022-10-08T03:43:52.128Z,99.60
2022-10-08T03:46:18.801Z,99.70
2022-10-08T03:48:49.730Z,99.70
2022-10-08T03:51:17.268Z,99.60
2022-10-08T03:53:44.682Z,99.80
2022-10-08T03:56:17.557Z,99.80
2022-10-08T03:58:44.258Z,99.90
2022-10-08T04:01:16.379Z,99.90
2022-10-08T04:03:45.192Z,99.90
2022-10-08T04:06:12.823Z,99.90
2022-10-08T04:08:39.859Z,99.90
2022-10-08T04:11:08.527Z,99.90
2022-10-08T04:13:36.412Z,99.90
2022-10-08T04:16:05.401Z,99.90
2022-10-08T04:18:32.811Z,99.90
2022-10-08T04:21:01.184Z,99.90
2022-10-08T04:23:28.935Z,99.90
2022-10-08T04:25:55.638Z,99.90
2022-10-08T04:28:22.928Z,99.90
2022-10-08T04:30:57.808Z,99.90
2022-10-08T04:33:24.786Z,99.90
2022-10-08T04:35:55.137Z,99.90
2022-10-08T04:38:26.301Z,99.90
2022-10-08T04:41:05.565Z,99.90
2022-10-08T04:43:32.973Z,99.90
2022-10-08T04:45:59.687Z,99.90
2022-10-08T04:48:26.692Z,99.90
2022-10-08T04:50:58.301Z,99.90
2022-10-08T04:53:27.986Z,99.90
2022-10-08T04:55:56.157Z,99.90
2022-10-08T04:58:25.090Z,99.90
2022-10-08T05:00:52.123Z,99.90
2022-10-08T05:03:18.739Z,99.90
2022-10-08T05:05:46.517Z,99.90
2022-10-08T05:08:13.213Z,99.90
2022-10-08T05:10:39.906Z,99.90
2022-10-08T05:13:06.545Z,99.90
2022-10-08T05:15:35.174Z,99.90
2022-10-08T05:18:01.840Z,99.90
2022-10-08T05:20:28.444Z,99.90
2022-10-08T05:22:55.054Z,99.90
2022-10-08T05:25:21.765Z,99.90
2022-10-08T05:27:48.335Z,99.90
2022-10-08T05:30:17.511Z,99.90
2022-10-08T05:32:48.088Z,99.90
2022-10-08T05:35:15.186Z,99.90
2022-10-08T05:37:41.785Z,99.90
2022-10-08T05:40:08.653Z,99.90
2022-10-08T05:42:35.325Z,99.90
2022-10-08T05:45:01.988Z,99.90
2022-10-08T05:47:28.589Z,99.90
2022-10-08T05:49:55.177Z,99.90
2022-10-08T05:52:21.927Z,99.90
2022-10-08T05:54:48.683Z,99.90
2022-10-08T05:57:15.278Z,99.90
2022-10-08T05:59:41.950Z,99.90
2022-10-08T06:02:10.933Z,99.90
2022-10-08T06:04:37.583Z,99.90
2022-10-08T06:07:04.248Z,99.90
2022-10-08T06:09:30.891Z,99.90
2022-10-08T06:11:58.013Z,99.90
2022-10-08T06:14:24.884Z,99.90
2022-10-08T06:16:51.488Z,99.90
2022-10-08T06:19:18.259Z,99.90
2022-10-08T06:21:44.927Z,99.90
2022-10-08T06:24:12.655Z,99.90
2022-10-08T06:26:41.309Z,99.90
2022-10-08T06:29:12.430Z,99.90
2022-10-08T06:31:39.107Z,99.90
2022-10-08T06:34:05.982Z,99.90
2022-10-08T06:36:34.033Z,99.90
2022-10-08T06:39:03.567Z,99.90
2022-10-08T06:41:30.512Z,99.90
2022-10-08T06:43:57.186Z,99.90
2022-10-08T06:46:23.856Z,99.90
2022-10-08T06:48:50.525Z,99.90
2022-10-08T06:51:18.896Z,99.90
2022-10-08T06:53:51.458Z,99.90
2022-10-08T06:56:18.140Z,99.90
2022-10-08T06:58:45.927Z,99.90
2022-10-08T07:01:14.891Z,99.90
2022-10-08T07:03:41.692Z,99.90
2022-10-08T07:06:10.782Z,99.90
2022-10-08T07:08:38.768Z,99.90
2022-10-08T07:11:07.560Z,99.90
2022-10-08T07:13:34.605Z,99.90
2022-10-08T07:16:10.726Z,99.90
2022-10-08T07:18:39.137Z,99.90
2022-10-08T07:21:06.817Z,99.90
2022-10-08T07:23:33.945Z,99.90
2022-10-08T07:26:06.319Z,99.90
2022-10-08T07:28:37.547Z,99.90
2022-10-08T07:31:15.553Z,99.90
2022-10-08T07:33:42.311Z,99.90
2022-10-08T07:36:13.868Z,99.90
2022-10-08T07:38:41.607Z,99.90
2022-10-08T07:41:09.473Z,99.90
2022-10-08T07:43:37.072Z,99.90
2022-10-08T07:46:06.238Z,99.90
2022-10-08T07:48:34.409Z,99.90
2022-10-08T07:51:15.530Z,99.90
2022-10-08T07:53:43.036Z,99.90
2022-10-08T07:56:12.633Z,99.90
2022-10-08T07:58:39.538Z,99.90
2022-10-08T08:01:08.722Z,99.90
2022-10-08T08:03:35.726Z,99.90
2022-10-08T08:06:04.957Z,99.90
2022-10-08T08:08:31.868Z,99.90
2022-10-08T08:10:59.960Z,99.90
2022-10-08T08:13:31.775Z,99.90
2022-10-08T08:16:06.798Z,99.90
2022-10-08T08:18:35.538Z,99.90
2022-10-08T08:21:05.689Z,99.90
2022-10-08T08:23:34.934Z,99.90
2022-10-08T08:26:06.613Z,99.90
2022-10-08T08:28:33.695Z,99.90
2022-10-08T08:31:17.860Z,99.90
2022-10-08T08:33:50.861Z,99.90
2022-10-08T08:36:18.531Z,99.90
2022-10-08T08:38:45.782Z,99.90
2022-10-08T08:41:56.642Z,99.90
2022-10-08T08:44:41.854Z,99.90
2022-10-08T08:47:18.747Z,99.90
2022-10-08T08:49:53.240Z,99.90
2022-10-08T08:52:25.114Z,99.90
2022-10-08T08:54:53.360Z,99.90
2022-10-08T08:57:44.132Z,99.90
2022-10-08T09:00:17.707Z,99.90
2022-10-08T09:03:05.234Z,99.90
2022-10-08T09:05:35.826Z,99.90
2022-10-08T09:08:30.878Z,99.90
2022-10-08T09:10:59.950Z,99.90
2022-10-08T09:13:53.031Z,99.90
2022-10-08T09:16:19.713Z,99.60
2022-10-08T09:18:49.245Z,99.50
2022-10-08T09:21:16.937Z,99.20
2022-10-08T09:23:44.203Z,99.30
2022-10-08T09:26:20.951Z,99.10
2022-10-08T09:28:50.377Z,99.00
2022-10-08T09:31:45.116Z,98.60
2022-10-08T09:34:17.652Z,98.60
2022-10-08T09:37:12.532Z,98.30
2022-10-08T09:39:39.347Z,98.40
2022-10-08T09:42:17.482Z,98.40
2022-10-08T09:44:52.570Z,98.10
2022-10-08T09:47:24.546Z,98.20
2022-10-08T09:50:06.936Z,97.60
2022-10-08T09:52:36.346Z,97.40
2022-10-08T09:55:16.356Z,97.00
2022-10-08T09:57:49.507Z,96.70
2022-10-08T10:00:29.885Z,96.30
2022-10-08T10:02:58.084Z,96.30
2022-10-08T10:05:29.870Z,95.90
2022-10-08T10:07:56.788Z,95.70
2022-10-08T10:10:39.137Z,95.70
2022-10-08T10:13:28.973Z,95.60
2022-10-08T10:16:14.496Z,95.10
2022-10-08T10:19:21.800Z,94.80
2022-10-08T10:21:52.533Z,95.00
2022-10-08T10:24:38.233Z,94.50
2022-10-08T10:27:13.687Z,94.40
2022-10-08T10:30:10.018Z,94.20
2022-10-08T10:32:45.892Z,94.10
2022-10-08T10:35:19.423Z,94.10
2022-10-08T10:38:08.829Z,94.20
2022-10-08T10:40:47.267Z,94.50
2022-10-08T10:43:31.033Z,94.50
2022-10-08T10:46:19.932Z,94.50
2022-10-08T10:48:46.655Z,94.60
2022-10-08T10:51:25.187Z,94.10
2022-10-08T10:54:04.375Z,93.80
2022-10-08T10:56:37.692Z,93.70
2022-10-08T10:59:08.869Z,94.00
2022-10-08T11:01:54.358Z,94.10
2022-10-08T11:04:26.795Z,94.20
2022-10-08T11:07:02.704Z,94.40
2022-10-08T11:09:33.158Z,93.70
2022-10-08T11:12:28.791Z,94.00
2022-10-08T11:15:03.606Z,93.80
2022-10-08T11:17:45.179Z,93.80
2022-10-08T11:20:37.954Z,94.10
2022-10-08T11:23:23.388Z,94.20
2022-10-08T11:26:20.480Z,97.60
2022-10-08T11:29:01.125Z,99.10
2022-10-08T11:31:43.799Z,99.90
2022-10-08T11:34:24.618Z,99.90
2022-10-08T11:37:20.163Z,99.90
2022-10-08T11:39:59.808Z,99.90
2022-10-08T11:42:44.995Z,99.90
2022-10-08T11:45:23.265Z,99.90
2022-10-08T11:47:54.833Z,99.90
2022-10-08T11:50:23.457Z,99.90
2022-10-08T11:52:51.636Z,99.90
2022-10-08T11:55:26.359Z,99.90
2022-10-08T11:58:08.002Z,99.90
2022-10-08T12:00:39.633Z,99.90
2022-10-08T12:03:23.249Z,99.90
2022-10-08T12:05:53.317Z,99.60
2022-10-08T12:08:50.469Z,99.90
2022-10-08T12:11:32.123Z,99.20
2022-10-08T12:14:17.090Z,99.10
2022-10-08T12:16:56.073Z,99.00
2022-10-08T12:19:34.825Z,98.00
2022-10-08T12:22:17.188Z,97.70
2022-10-08T12:24:49.556Z,97.90
2022-10-08T12:27:16.665Z,97.70
2022-10-08T12:30:05.508Z,97.60
2022-10-08T12:32:40.018Z,97.10
2022-10-08T12:35:27.472Z,95.70
2022-10-08T12:38:20.963Z,95.80
2022-10-08T12:40:50.318Z,95.90
2022-10-08T12:43:32.070Z,96.20
2022-10-08T12:46:17.623Z,95.20
2022-10-08T12:48:47.942Z,95.50
2022-10-08T12:51:24.956Z,95.60
2022-10-08T12:53:52.068Z,95.70
2022-10-08T12:56:26.473Z,96.00
2022-10-08T12:58:56.815Z,96.30
2022-10-08T13:01:24.646Z,96.30
2022-10-08T13:04:20.369Z,96.30
2022-10-08T13:06:48.402Z,96.00
2022-10-08T13:09:27.798Z,95.60
2022-10-08T13:12:01.985Z,95.40
2022-10-08T13:14:35.347Z,94.90
2022-10-08T13:17:03.023Z,94.40
2022-10-08T13:19:36.492Z,94.20
2022-10-08T13:22:22.680Z,94.60
2022-10-08T13:24:49.775Z,94.70
2022-10-08T13:27:23.564Z,94.60
2022-10-08T13:29:50.476Z,94.80
2022-10-08T13:32:22.902Z,94.70
2022-10-08T13:34:54.467Z,94.90
2022-10-08T13:37:29.241Z,95.80
2022-10-08T13:40:12.441Z,96.50
2022-10-08T13:42:52.152Z,96.80
2022-10-08T13:45:24.899Z,97.80
2022-10-08T13:47:52.585Z,98.30
2022-10-08T13:50:20.331Z,98.50
2022-10-08T13:52:54.337Z,99.10
2022-10-08T13:55:32.695Z,99.20
2022-10-08T13:58:02.044Z,99.10
2022-10-08T14:00:35.285Z,97.80
2022-10-08T14:03:03.026Z,97.70
2022-10-08T14:05:32.153Z,97.40
2022-10-08T14:08:02.792Z,97.10
2022-10-08T14:10:29.553Z,97.40
2022-10-08T14:12:56.241Z,97.40
2022-10-08T14:15:22.986Z,97.30
2022-10-08T14:17:50.590Z,97.00
2022-10-08T14:20:17.470Z,96.70
2022-10-08T14:22:44.285Z,96.30
2022-10-08T14:25:16.356Z,96.50
2022-10-08T14:27:42.971Z,96.70
2022-10-08T14:30:11.749Z,96.70
2022-10-08T14:32:39.143Z,96.70
2022-10-08T14:35:06.681Z,96.70
2022-10-08T14:37:34.207Z,96.90
2022-10-08T14:40:01.132Z,97.10
2022-10-08T14:42:27.713Z,97.40
2022-10-08T14:44:54.309Z,99.20
2022-10-08T14:47:20.906Z,98.60
2022-10-08T14:49:47.489Z,97.90
2022-10-08T14:52:14.103Z,97.90
2022-10-08T14:54:40.701Z,97.60
2022-10-08T14:57:07.408Z,97.80
2022-10-08T14:59:39.033Z,98.00
2022-10-08T15:02:06.695Z,98.00
2022-10-08T15:04:33.453Z,98.10
2022-10-08T15:07:00.137Z,98.10
2022-10-08T15:09:28.356Z,98.10
2022-10-08T15:11:54.934Z,98.50
2022-10-08T15:14:21.504Z,98.20
2022-10-08T15:16:48.161Z,97.80
2022-10-08T15:19:15.700Z,97.40
2022-10-08T15:21:44.353Z,96.90
2022-10-08T15:24:10.932Z,97.00
2022-10-08T15:26:37.575Z,97.20
2022-10-08T15:29:04.570Z,97.30
2022-10-08T15:31:31.284Z,97.40
2022-10-08T15:33:59.616Z,97.30
2022-10-08T15:36:27.964Z,97.30
2022-10-08T15:39:00.537Z,97.10
2022-10-08T15:41:28.628Z,97.60
2022-10-08T15:43:55.735Z,98.70
2022-10-08T15:46:26.083Z,99.90
2022-10-08T15:48:54.805Z,99.90
2022-10-08T15:51:22.691Z,99.90
2022-10-08T15:53:50.363Z,99.90
2022-10-08T15:56:17.408Z,99.00
2022-10-08T15:58:50.780Z,99.80
2022-10-08T16:01:20.362Z,99.60
2022-10-08T16:03:49.330Z,99.90
2022-10-08T16:06:19.009Z,99.90
2022-10-08T16:08:45.633Z,99.90
2022-10-08T16:11:17.296Z,99.90
2022-10-08T16:13:48.861Z,99.90
2022-10-08T16:16:18.719Z,99.90
2022-10-08T16:18:47.204Z,99.90
2022-10-08T16:21:14.170Z,99.90
2022-10-08T16:23:40.844Z,99.90
2022-10-08T16:26:11.033Z,99.90
2022-10-08T16:28:39.882Z,99.90
2022-10-08T16:31:08.296Z,99.90
2022-10-08T16:33:35.057Z,99.90
2022-10-08T16:36:04.445Z,99.90
2022-10-08T16:38:32.935Z,99.90
2022-10-08T16:41:17.676Z,99.90
2022-10-08T16:43:47.029Z,99.90
2022-10-08T16:46:22.303Z,99.90
2022-10-08T16:49:00.853Z,99.90
2022-10-08T16:51:30.597Z,99.90
2022-10-08T16:53:59.047Z,99.90
2022-10-08T16:56:31.104Z,99.90
2022-10-08T16:59:00.344Z,99.90
2022-10-08T17:01:27.527Z,99.90
2022-10-08T17:03:54.599Z,99.90
2022-10-08T17:06:23.023Z,99.90
2022-10-08T17:08:50.853Z,99.90
2022-10-08T17:11:18.678Z,99.90
2022-10-08T17:13:47.919Z,99.90
2022-10-08T17:16:15.022Z,99.90
2022-10-08T17:18:44.147Z,99.90
2022-10-08T17:21:11.754Z,99.90
2022-10-08T17:23:38.824Z,99.90
2022-10-08T17:26:08.494Z,99.90
2022-10-08T17:28:38.094Z,99.90
2022-10-08T17:31:06.018Z,99.90
2022-10-08T17:33:36.014Z,99.90
2022-10-08T17:36:15.623Z,99.90
2022-10-08T17:38:44.061Z,99.90
2022-10-08T17:41:12.909Z,99.90
2022-10-08T17:43:39.532Z,99.90
2022-10-08T17:46:16.873Z,99.90
2022-10-08T17:48:43.705Z,99.90
2022-10-08T17:51:13.688Z,99.90
2022-10-08T17:53:40.876Z,99.90
2022-10-08T17:56:10.383Z,99.90
2022-10-08T17:58:37.455Z,99.90
2022-10-08T18:01:04.169Z,99.90
2022-10-08T18:03:30.879Z,99.90
2022-10-08T18:05:58.860Z,99.90
2022-10-08T18:08:26.022Z,99.90
2022-10-08T18:10:52.717Z,99.90
2022-10-08T18:13:19.721Z,99.90
2022-10-08T18:15:46.739Z,99.90
2022-10-08T18:18:13.523Z,99.90
2022-10-08T18:20:40.210Z,99.90
2022-10-08T18:23:08.385Z,99.90
2022-10-08T18:25:35.838Z,99.90
2022-10-08T18:28:03.098Z,99.90
2022-10-08T18:30:29.892Z,99.90
2022-10-08T18:32:57.119Z,99.90
2022-10-08T18:35:25.247Z,99.90
2022-10-08T18:37:51.962Z,99.90
2022-10-08T18:40:18.666Z,99.90
2022-10-08T18:42:45.666Z,99.90
2022-10-08T18:45:12.528Z,99.90
2022-10-08T18:47:39.172Z,99.90
2022-10-08T18:50:06.311Z,99.90
2022-10-08T18:52:33.519Z,99.90
2022-10-08T18:55:03.103Z,99.90
2022-10-08T18:57:29.743Z,99.90
2022-10-08T18:59:56.404Z,99.90
2022-10-08T19:02:23.266Z,99.90
2022-10-08T19:04:50.083Z,99.90
2022-10-08T19:07:16.746Z,99.90
2022-10-08T19:09:43.444Z,99.90
2022-10-08T19:12:10.050Z,99.90
2022-10-08T19:14:36.756Z,99.90
2022-10-08T19:17:03.422Z,99.90
2022-10-08T19:19:31.756Z,99.90
2022-10-08T19:22:01.313Z,99.90
2022-10-08T19:24:28.725Z,99.90
2022-10-08T19:26:57.295Z,99.90
2022-10-08T19:29:28.761Z,99.90
2022-10-08T19:31:56.268Z,99.90
2022-10-08T19:34:25.127Z,99.90
2022-10-08T19:36:52.395Z,99.90
2022-10-08T19:39:21.991Z,99.90
2022-10-08T19:41:49.236Z,99.90
2022-10-08T19:44:17.181Z,99.90
2022-10-08T19:46:44.365Z,99.90
2022-10-08T19:49:12.763Z,99.90
2022-10-08T19:51:40.195Z,99.90
2022-10-08T19:54:07.059Z,99.90
2022-10-08T19:56:33.957Z,99.90
2022-10-08T19:59:00.653Z,99.90
2022-10-08T20:01:30.194Z,99.90
2022-10-08T20:03:58.657Z,99.90
2022-10-08T20:06:28.595Z,99.90
2022-10-08T20:08:57.352Z,99.90
2022-10-08T20:11:24.650Z,99.90
2022-10-08T20:13:52.967Z,99.90
2022-10-08T20:16:31.345Z,99.90
2022-10-08T20:19:06.563Z,99.90
2022-10-08T20:21:35.882Z,99.90
2022-10-08T20:24:03.103Z,99.90
2022-10-08T20:26:32.482Z,99.90
2022-10-08T20:29:02.025Z,99.90
2022-10-08T20:31:31.021Z,99.90
2022-10-08T20:34:12.974Z,99.90
2022-10-08T20:36:39.753Z,99.90
2022-10-08T20:39:07.158Z,99.90
2022-10-08T20:41:33.923Z,99.90
2022-10-08T20:44:04.735Z,99.90
2022-10-08T20:46:33.881Z,99.90
2022-10-08T20:49:01.158Z,99.90
2022-10-08T20:51:28.943Z,99.90
2022-10-08T20:53:58.609Z,99.90
2022-10-08T20:56:26.023Z,99.90
2022-10-08T20:58:53.211Z,99.90
2022-10-08T21:01:24.941Z,99.90
2022-10-08T21:03:52.207Z,99.90
2022-10-08T21:06:21.918Z,99.90
2022-10-08T21:08:50.558Z,99.90
2022-10-08T21:11:19.648Z,99.90
2022-10-08T21:13:46.981Z,99.90
2022-10-08T21:16:14.751Z,99.90
2022-10-08T21:18:41.744Z,99.90
2022-10-08T21:21:11.581Z,99.90
2022-10-08T21:23:39.038Z,99.90
2022-10-08T21:26:14.578Z,99.90
2022-10-08T21:28:42.652Z,99.90
2022-10-08T21:31:10.479Z,99.90
2022-10-08T21:33:38.820Z,99.90
2022-10-08T21:36:07.519Z,99.90
2022-10-08T21:38:34.312Z,99.90
2022-10-08T21:41:11.147Z,99.90
2022-10-08T21:43:52.762Z,99.90
2022-10-08T21:46:21.987Z,99.90
2022-10-08T21:48:54.244Z,99.90
2022-10-08T21:51:21.165Z,99.90
2022-10-08T21:53:49.930Z,99.90
2022-10-08T21:56:18.860Z,99.90
2022-10-08T21:58:51.401Z,99.90
2022-10-08T22:01:37.118Z,99.90
2022-10-08T22:04:05.512Z,99.90
2022-10-08T22:06:34.779Z,99.90
2022-10-08T22:09:01.567Z,99.90
2022-10-08T22:11:28.202Z,99.90
2022-10-08T22:13:54.837Z,99.90
2022-10-08T22:16:22.861Z,99.90
2022-10-08T22:18:49.661Z,99.90
2022-10-08T22:21:18.799Z,99.90
2022-10-08T22:23:46.612Z,99.90
2022-10-08T22:26:16.212Z,99.90
2022-10-08T22:28:43.481Z,99.90
2022-10-08T22:31:12.666Z,99.90
2022-10-08T22:33:39.355Z,99.90
2022-10-08T22:36:11.873Z,99.90
2022-10-08T22:38:40.194Z,99.90
2022-10-08T22:41:12.685Z,99.90
2022-10-08T22:43:41.113Z,99.90
2022-10-08T22:46:13.817Z,99.90
2022-10-08T22:48:40.748Z,99.90
2022-10-08T22:51:10.715Z,99.90
2022-10-08T22:53:37.560Z,99.90
2022-10-08T22:56:09.923Z,99.90
2022-10-08T22:58:36.550Z,99.90
2022-10-08T23:01:04.814Z,99.90
2022-10-08T23:03:32.500Z,99.90
2022-10-08T23:06:16.396Z,99.90
2022-10-08T23:08:44.053Z,99.90
2022-10-08T23:11:11.306Z,99.90
2022-10-08T23:13:37.959Z,99.90
2022-10-08T23:16:04.679Z,99.90
2022-10-08T23:18:33.533Z,99.90
2022-10-08T23:21:09.373Z,99.90
2022-10-08T23:23:36.371Z,99.90
2022-10-08T23:26:04.933Z,99.90
2022-10-08T23:28:33.122Z,99.90
2022-10-08T23:31:15.469Z,99.90
2022-10-08T23:33:44.770Z,99.90
2022-10-08T23:36:17.534Z,99.90
2022-10-08T23:38:44.390Z,99.90
2022-10-08T23:41:12.174Z,99.90
2022-10-08T23:43:41.280Z,99.90
2022-10-08T23:46:09.606Z,99.90
2022-10-08T23:48:36.565Z,99.90
2022-10-08T23:51:03.417Z,99.90
2022-10-08T23:53:30.407Z,99.90
2022-10-08T23:55:57.134Z,99.90
2022-10-08T23:58:23.944Z,99.90
